createdAt,value
2023-04-11T00:01:07.240Z,4.77
2023-04-11T00:04:11.129Z,3.87
2023-04-11T00:07:12.945Z,5.07
2023-04-11T00:10:14.643Z,4.00
2023-04-11T00:13:19.650Z,7.90
2023-04-11T00:16:21.400Z,4.60
2023-04-11T00:19:23.400Z,4.03
2023-04-11T00:25:55.639Z,2.70
2023-04-11T00:28:57.334Z,8.60
2023-04-11T00:31:59.028Z,2.50
2023-04-11T00:35:00.705Z,3.97
2023-04-11T00:38:03.834Z,4.97
2023-04-11T00:41:06.273Z,4.93
2023-04-11T00:44:08.481Z,4.60
2023-04-11T00:47:10.320Z,5.80
2023-04-11T00:50:13.901Z,10.27
2023-04-11T00:53:17.428Z,11.33
2023-04-11T00:56:19.182Z,12.83
2023-04-11T00:59:20.883Z,7.60
2023-04-11T01:02:24.824Z,13.63
2023-04-11T01:05:30.229Z,9.63
2023-04-11T01:08:31.910Z,9.90
2023-04-11T01:11:34.164Z,6.57
2023-04-11T01:14:35.830Z,8.57
2023-04-11T01:17:37.740Z,4.97
2023-04-11T01:20:39.600Z,5.73
2023-04-11T01:23:41.555Z,9.73
2023-04-11T01:26:44.516Z,6.63
2023-04-11T01:29:46.604Z,8.80
2023-04-11T01:32:50.361Z,7.83
2023-04-11T01:35:52.451Z,6.47
2023-04-11T01:38:56.207Z,9.70
2023-04-11T01:42:00.872Z,6.40
2023-04-11T01:45:04.207Z,9.87
2023-04-11T01:48:09.104Z,12.97
2023-04-11T01:51:11.201Z,10.30
2023-04-11T01:54:12.884Z,11.90
2023-04-11T01:57:14.597Z,11.50
2023-04-11T02:00:16.741Z,8.00
2023-04-11T02:03:20.851Z,7.53
2023-04-11T02:06:23.197Z,20.47
2023-04-11T02:09:26.126Z,13.90
2023-04-11T02:12:30.246Z,16.13
2023-04-11T02:15:32.018Z,12.57
2023-04-11T02:18:33.744Z,12.77
2023-04-11T02:21:39.540Z,9.10
2023-04-11T02:24:47.627Z,12.83
2023-04-11T02:27:49.577Z,15.33
2023-04-11T02:30:51.821Z,15.93
2023-04-11T02:33:53.934Z,16.23
2023-04-11T02:37:02.781Z,13.27
2023-04-11T02:40:08.760Z,12.53
2023-04-11T02:43:13.863Z,12.13
2023-04-11T02:46:16.909Z,21.77
2023-04-11T02:49:20.075Z,10.30
2023-04-11T02:52:23.114Z,14.33
2023-04-11T02:55:25.282Z,14.30
2023-04-11T02:58:29.144Z,10.67
2023-04-11T03:01:37.604Z,17.27
2023-04-11T03:04:40.350Z,14.63
2023-04-11T03:07:48.288Z,22.20
2023-04-11T03:10:50.423Z,16.90
2023-04-11T03:13:52.778Z,22.40
2023-04-11T03:16:54.653Z,16.80
2023-04-11T03:19:56.576Z,16.60
2023-04-11T03:23:01.948Z,28.10
2023-04-11T03:26:07.813Z,19.00
2023-04-11T03:29:09.877Z,12.67
2023-04-11T03:32:23.201Z,14.83
2023-04-11T03:35:25.088Z,20.80
2023-04-11T03:38:26.910Z,19.83
2023-04-11T03:41:28.969Z,22.87
2023-04-11T03:44:32.006Z,21.63
2023-04-11T03:47:34.200Z,15.03
2023-04-11T03:50:36.997Z,12.70
2023-04-11T03:53:39.224Z,16.00
2023-04-11T03:57:17.732Z,15.97
2023-04-11T04:00:20.802Z,16.13
2023-04-11T04:03:35.282Z,14.83
2023-04-11T04:06:38.796Z,15.17
2023-04-11T04:09:41.933Z,18.00
2023-04-11T04:12:44.763Z,16.83
2023-04-11T04:15:51.698Z,13.90
2023-04-11T04:18:58.400Z,17.37
2023-04-11T04:22:01.554Z,13.67
2023-04-11T04:25:12.695Z,12.27
2023-04-11T04:28:20.284Z,16.47
2023-04-11T04:31:27.889Z,19.83
2023-04-11T04:34:47.172Z,13.50
2023-04-11T04:37:55.267Z,17.80
2023-04-11T04:41:17.580Z,10.27
2023-04-11T04:44:34.378Z,15.40
2023-04-11T04:47:42.294Z,13.80
2023-04-11T04:50:45.893Z,13.57
2023-04-11T04:53:48.704Z,17.13
2023-04-11T05:07:18.878Z,19.97
2023-04-11T05:10:25.844Z,14.33
2023-04-11T05:13:27.887Z,13.53
2023-04-11T05:16:29.796Z,19.93
2023-04-11T05:19:33.076Z,11.00
2023-04-11T05:22:37.495Z,10.70
2023-04-11T05:25:39.668Z,10.80
2023-04-11T05:28:45.652Z,11.00
2023-04-11T05:31:51.910Z,12.83
2023-04-11T05:34:59.102Z,7.93
2023-04-11T05:38:23.859Z,14.90
2023-04-11T05:41:26.603Z,13.27
2023-04-11T05:44:28.366Z,8.43
2023-04-11T05:47:31.275Z,6.07
2023-04-11T05:50:34.004Z,9.00
2023-04-11T05:53:35.957Z,13.00
2023-04-11T05:56:39.848Z,13.10
2023-04-11T05:59:42.930Z,16.27
2023-04-11T06:02:45.161Z,10.80
2023-04-11T06:05:47.234Z,7.90
2023-04-11T06:08:49.499Z,9.90
2023-04-11T06:11:53.305Z,5.80
2023-04-11T06:14:55.325Z,5.70
2023-04-11T06:17:57.659Z,12.07
2023-04-11T06:20:59.546Z,11.97
2023-04-11T06:24:11.310Z,12.53
2023-04-11T06:27:14.869Z,7.40
2023-04-11T06:30:17.086Z,13.80
2023-04-11T06:33:19.169Z,8.57
2023-04-11T06:36:24.170Z,5.90
2023-04-11T06:39:26.506Z,7.43
2023-04-11T06:42:28.583Z,8.77
2023-04-11T06:45:31.073Z,4.57
2023-04-11T06:48:33.072Z,6.50
2023-04-11T06:51:35.934Z,12.43
2023-04-11T06:54:37.936Z,4.10
2023-04-11T06:57:42.156Z,4.83
2023-04-11T07:00:44.066Z,13.33
2023-04-11T07:03:50.432Z,12.57
2023-04-11T07:06:55.380Z,11.10
2023-04-11T07:09:58.061Z,8.00
2023-04-11T07:13:00.170Z,6.20
2023-04-11T07:16:02.097Z,4.87
2023-04-11T07:19:03.997Z,6.30
2023-04-11T07:22:05.828Z,4.50
2023-04-11T07:25:07.991Z,4.20
2023-04-11T07:28:10.418Z,6.40
2023-04-11T07:31:14.024Z,8.10
2023-04-11T07:34:16.216Z,8.57
2023-04-11T07:37:18.302Z,6.33
2023-04-11T07:40:20.543Z,6.43
2023-04-11T07:43:23.511Z,5.63
2023-04-11T07:46:25.699Z,8.43
2023-04-11T07:56:36.237Z,7.20
2023-04-11T07:59:38.252Z,10.77
2023-04-11T08:02:47.739Z,7.40
2023-04-11T08:05:50.604Z,5.90
2023-04-11T08:08:52.546Z,10.33
2023-04-11T08:11:55.144Z,9.83
2023-04-11T08:14:57.066Z,10.80
2023-04-11T08:17:59.899Z,6.53
2023-04-11T08:21:02.579Z,8.47
2023-04-11T08:24:06.137Z,7.47
2023-04-11T08:27:08.195Z,6.17
2023-04-11T08:30:10.496Z,12.03
2023-04-11T08:33:12.930Z,5.43
2023-04-11T08:36:14.956Z,10.20
2023-04-11T08:39:16.874Z,7.47
2023-04-11T08:42:32.118Z,10.90
2023-04-11T08:45:33.962Z,11.50
2023-04-11T08:48:36.251Z,9.33
2023-04-11T08:51:43.561Z,4.70
2023-04-11T08:54:51.383Z,6.30
2023-04-11T08:57:53.915Z,1.87
2023-04-11T09:00:55.887Z,7.70
2023-04-11T09:04:02.388Z,5.70
2023-04-11T09:07:11.627Z,4.23
2023-04-11T09:10:21.423Z,6.03
2023-04-11T09:13:29.438Z,7.47
2023-04-11T09:16:33.635Z,5.23
2023-04-11T09:19:35.840Z,13.30
2023-04-11T09:22:37.983Z,9.40
2023-04-11T09:25:44.730Z,6.77
2023-04-11T09:28:54.762Z,10.77
2023-04-11T09:31:58.354Z,4.30
2023-04-11T09:35:20.902Z,8.57
2023-04-11T09:38:34.069Z,8.27
2023-04-11T09:41:41.962Z,6.00
2023-04-11T09:44:43.860Z,3.10
2023-04-11T09:47:47.238Z,9.00
2023-04-11T09:50:51.070Z,5.80
2023-04-11T09:53:54.719Z,10.33
2023-04-11T09:56:57.151Z,5.93
2023-04-11T09:59:59.197Z,8.93
2023-04-11T10:03:01.448Z,5.60
2023-04-11T10:06:09.474Z,9.97
2023-04-11T10:09:15.510Z,4.53
2023-04-11T10:12:34.098Z,4.30
2023-04-11T10:15:35.993Z,7.83
2023-04-11T10:18:40.667Z,8.20
2023-04-11T10:21:53.265Z,3.27
2023-04-11T10:25:21.117Z,6.23
2023-04-11T10:28:41.567Z,8.70
2023-04-11T10:32:15.740Z,10.57
2023-04-11T10:35:17.665Z,3.40
2023-04-11T10:38:48.634Z,3.50
2023-04-11T10:41:50.991Z,7.57
2023-04-11T10:45:31.382Z,5.07
2023-04-11T10:48:57.848Z,6.70
2023-04-11T10:52:21.682Z,7.97
2023-04-11T10:55:24.895Z,7.47
2023-04-11T10:58:40.010Z,10.13
2023-04-11T11:01:48.979Z,6.60
2023-04-11T11:04:54.771Z,5.37
2023-04-11T11:07:56.704Z,4.90
2023-04-11T11:11:03.365Z,4.33
2023-04-11T11:14:05.482Z,3.20
2023-04-11T11:17:09.009Z,2.73
2023-04-11T11:20:20.370Z,3.30
2023-04-11T12:25:07.794Z,3.43
2023-04-11T13:14:48.107Z,4.60
2023-04-11T13:17:50.281Z,3.43
2023-04-11T13:20:52.088Z,5.22
2023-04-11T13:23:53.926Z,2.42
2023-04-11T13:31:06.090Z,5.40
2023-04-11T13:34:13.609Z,5.30
2023-04-11T13:37:18.036Z,5.20
2023-04-11T13:40:35.377Z,5.10
2023-04-11T13:43:38.806Z,3.95
2023-04-11T13:46:41.126Z,6.47
2023-04-11T13:49:51.261Z,4.13
2023-04-11T13:53:09.069Z,3.17
2023-04-11T13:56:11.596Z,4.87
2023-04-11T13:59:13.828Z,1.77
2023-04-11T14:02:18.253Z,3.60
2023-04-11T14:05:27.055Z,5.60
2023-04-11T14:08:35.110Z,3.17
2023-04-11T14:11:52.551Z,3.70
2023-04-11T14:15:02.745Z,3.17
2023-04-11T14:18:16.373Z,2.43
2023-04-11T14:21:25.649Z,4.17
2023-04-11T14:24:35.812Z,4.33
2023-04-11T14:27:39.755Z,4.93
2023-04-11T14:30:48.079Z,2.07
2023-04-11T14:33:55.886Z,5.53
2023-04-11T14:37:08.761Z,2.17
2023-04-11T14:40:15.178Z,2.10
2023-04-11T14:43:17.152Z,1.97
2023-04-11T14:46:31.543Z,5.82
2023-04-11T14:49:37.638Z,3.00
2023-04-11T14:52:48.158Z,3.87
2023-04-11T14:55:59.547Z,4.40
2023-04-11T15:02:56.280Z,5.07
2023-04-11T15:06:05.737Z,2.45
2023-04-11T15:09:11.164Z,5.88
2023-04-11T15:12:35.209Z,3.88
2023-04-11T15:15:40.683Z,4.50
2023-04-11T15:18:43.049Z,4.03
2023-04-11T15:21:51.516Z,3.75
2023-04-11T15:24:57.858Z,2.78
2023-04-11T15:28:02.772Z,3.40
2023-04-11T15:31:14.909Z,4.80
2023-04-11T15:34:27.907Z,5.50
2023-04-11T15:37:35.117Z,3.90
2023-04-11T15:40:46.445Z,5.45
2023-04-11T15:43:48.593Z,4.40
2023-04-11T15:46:50.612Z,6.47
2023-04-11T15:50:15.321Z,3.10
2023-04-11T15:53:36.071Z,3.03
2023-04-11T15:56:41.121Z,6.13
2023-04-11T15:59:43.061Z,4.35
2023-04-11T16:02:49.371Z,2.47
2023-04-11T16:05:57.840Z,3.20
2023-04-11T16:09:02.182Z,4.65
2023-04-11T16:12:06.469Z,5.70
2023-04-11T16:15:15.830Z,4.07
2023-04-11T16:18:23.268Z,3.45
2023-04-11T16:21:28.992Z,2.88
2023-04-11T16:24:34.841Z,10.65
2023-04-11T16:28:02.889Z,5.50
2023-04-11T16:31:11.088Z,6.18
2023-04-11T16:34:20.668Z,7.75
2023-04-11T16:37:27.130Z,2.67
2023-04-11T16:40:31.975Z,2.88
2023-04-11T16:43:34.133Z,4.87
2023-04-11T16:46:43.582Z,4.20
2023-04-11T16:49:47.106Z,4.20
2023-04-11T16:52:58.510Z,7.40
2023-04-11T16:56:00.680Z,3.97
2023-04-11T16:59:09.292Z,3.13
2023-04-11T17:02:20.143Z,11.17
2023-04-11T17:05:24.207Z,4.53
2023-04-11T17:08:29.533Z,3.73
2023-04-11T17:11:37.817Z,4.43
2023-04-11T17:14:42.813Z,2.70
2023-04-11T17:17:47.117Z,4.53
2023-04-11T17:20:49.264Z,2.93
2023-04-11T17:24:00.372Z,5.83
2023-04-11T17:27:06.063Z,5.23
2023-04-11T17:30:18.616Z,2.87
2023-04-11T17:33:29.272Z,3.00
2023-04-11T17:36:35.447Z,8.37
2023-04-11T17:39:46.715Z,3.30
2023-04-11T17:42:53.222Z,4.47
2023-04-11T17:46:02.834Z,1.60
2023-04-11T17:49:05.131Z,6.67
2023-04-11T17:52:26.626Z,6.50
2023-04-11T17:55:29.120Z,8.37
2023-04-11T17:58:34.691Z,6.97
2023-04-11T18:01:48.250Z,3.87
2023-04-11T18:04:56.835Z,3.13
2023-04-11T18:08:13.474Z,4.80
2023-04-11T18:11:21.721Z,16.23
2023-04-11T18:14:27.841Z,7.53
2023-04-11T18:17:30.534Z,11.90
2023-04-11T18:20:37.495Z,7.67
2023-04-11T18:23:43.854Z,2.53
2023-04-11T18:26:57.865Z,5.83
2023-04-11T18:30:03.371Z,5.70
2023-04-11T18:33:09.828Z,4.17
2023-04-11T18:36:22.242Z,7.87
2023-04-11T18:39:52.667Z,5.80
2023-04-11T18:43:06.763Z,4.60
2023-04-11T18:46:16.349Z,6.00
2023-04-11T18:49:19.007Z,5.40
2023-04-11T18:52:41.511Z,5.60
2023-04-11T18:55:53.149Z,7.83
2023-04-11T18:59:05.557Z,6.83
2023-04-11T19:02:10.776Z,6.13
2023-04-11T19:05:20.584Z,6.43
2023-04-11T19:08:35.002Z,3.20
2023-04-11T19:11:44.895Z,7.07
2023-04-11T19:15:01.656Z,12.57
2023-04-11T19:18:13.826Z,9.03
2023-04-11T19:21:31.143Z,10.23
2023-04-11T19:24:34.631Z,10.50
2023-04-11T19:27:42.873Z,14.37
2023-04-11T19:30:49.737Z,7.27
2023-04-11T19:34:01.483Z,9.30
2023-04-11T19:37:10.115Z,9.33
2023-04-11T19:40:16.858Z,12.63
2023-04-11T19:43:19.639Z,11.50
2023-04-11T19:46:21.430Z,9.40
2023-04-11T19:49:43.805Z,7.13
2023-04-11T19:53:04.045Z,6.03
2023-04-11T19:56:10.906Z,11.53
2023-04-11T19:59:21.757Z,5.67
2023-04-11T20:02:24.355Z,4.43
2023-04-11T20:05:32.268Z,9.50
2023-04-11T20:08:37.739Z,7.60
2023-04-11T20:11:53.281Z,8.47
2023-04-11T20:14:55.836Z,6.57
2023-04-11T20:18:01.205Z,5.00
2023-04-11T20:21:13.245Z,9.23
2023-04-11T20:24:31.802Z,7.50
2023-04-11T20:27:41.814Z,8.53
2023-04-11T20:31:27.738Z,6.03
2023-04-11T20:34:32.863Z,6.10
2023-04-11T20:37:52.140Z,5.17
2023-04-11T20:41:06.954Z,5.67
2023-04-11T20:44:29.455Z,5.83
2023-04-11T20:47:49.298Z,8.23
2023-04-11T20:51:11.552Z,5.40
2023-04-11T20:54:13.695Z,7.10
2023-04-11T20:57:22.045Z,9.30
2023-04-11T21:00:24.992Z,7.73
2023-04-11T21:03:33.510Z,5.60
2023-04-11T21:06:35.697Z,4.40
2023-04-11T21:09:38.562Z,5.90
2023-04-11T21:12:41.609Z,7.00
2023-04-11T21:15:43.447Z,5.60
2023-04-11T21:18:46.162Z,3.77
2023-04-11T21:21:48.217Z,9.37
2023-04-11T21:24:50.152Z,7.77
2023-04-11T21:27:51.933Z,10.33
2023-04-11T21:30:54.173Z,4.33
2023-04-11T21:33:56.305Z,6.40
2023-04-11T21:36:59.508Z,9.90
2023-04-11T21:40:02.343Z,6.47
2023-04-11T21:43:04.349Z,6.20
2023-04-11T21:46:06.942Z,6.67
2023-04-11T21:49:08.871Z,11.23
2023-04-11T21:52:10.807Z,5.97
2023-04-11T21:55:14.563Z,5.03
2023-04-11T21:58:28.602Z,5.10
2023-04-11T22:01:31.284Z,7.33
2023-04-11T22:04:39.243Z,5.33
2023-04-11T22:07:48.739Z,3.93
2023-04-11T22:10:52.329Z,10.17
2023-04-11T22:13:54.289Z,9.17
2023-04-11T22:16:58.322Z,5.20
2023-04-11T22:20:00.161Z,8.37
2023-04-11T22:23:01.881Z,7.80
2023-04-11T22:26:03.619Z,7.57
2023-04-11T22:29:05.410Z,7.40
2023-04-11T22:32:07.956Z,10.97
2023-04-11T22:35:10.304Z,4.73
2023-04-11T22:38:12.059Z,10.73
2023-04-11T22:41:17.420Z,7.50
2023-04-11T22:44:19.322Z,8.83
2023-04-11T22:47:21.752Z,4.27
2023-04-11T22:50:23.760Z,7.27
2023-04-11T22:53:26.163Z,9.40
2023-04-11T22:56:27.940Z,10.93
2023-04-11T22:59:29.718Z,5.93
2023-04-11T23:02:32.137Z,3.67
2023-04-11T23:05:34.227Z,2.17
2023-04-11T23:08:36.323Z,7.13
2023-04-11T23:11:38.085Z,7.43
2023-04-11T23:14:39.839Z,3.73
2023-04-11T23:17:41.703Z,6.50
2023-04-11T23:20:44.986Z,4.33
2023-04-11T23:23:46.802Z,6.53
2023-04-11T23:26:48.490Z,3.60
2023-04-11T23:29:52.528Z,8.07
2023-04-11T23:32:54.525Z,3.87
2023-04-11T23:35:56.761Z,5.23
2023-04-11T23:38:58.578Z,10.03
2023-04-11T23:42:00.891Z,3.77
2023-04-11T23:45:02.854Z,4.17
2023-04-11T23:48:04.891Z,4.10
2023-04-11T23:51:07.202Z,4.20
2023-04-11T23:54:08.981Z,8.13
2023-04-11T23:57:11.776Z,7.30
